Station Historical Data
Daily Summary for February 14, 2017 Units:  Metric    English   Both
Next Day »
Daily Weekly Monthly Yearly Custom
  High: Low: Average:
Temperature: 15.7 °C 5.7 °C 10 °C
Dew Point: 7.6 °C -0.3 °C 3.6 °C
Humidity: 82% 41% 66%
Wind Speed: 20.9km/h 0km/h 1.9km/h
Wind Gust: 25.7km/h - -
Wind- - SSE
Pressure: 1023.6 hPa 1019.9 hPa -
Precipitation: 0 mm    
Historical Graphs
 
 
Tabular Data for February 14, 2017
Time Temperature Dew Point Pressure Wind Wind Speed Wind Gust Humidity Rainfall Rate (Hourly) solar Conditions
00:02 7.4 °C 4.1 °C 1021.9 hPa East 6.4 km/h 6.4 km/h 79% 0 mm 0.00 W/m2
00:07 7.4 °C 3.9 °C 1021.9 hPa Calm   8 km/h 78% 0 mm 0.00 W/m2
00:12 7.4 °C 3.3 °C 1021.6 hPa Calm   3.2 km/h 75% 0 mm 0.00 W/m2
00:17 7.4 °C 3.5 °C 1021.9 hPa ESE 6.4 km/h 8 km/h 76% 0 mm 0.00 W/m2
00:22 7.4 °C 3.4 °C 1021.9 hPa ESE 1.6 km/h 11.3 km/h 76% 0 mm 0.00 W/m2
00:27 7.4 °C 3.4 °C 1021.9 hPa Calm   3.2 km/h 76% 0 mm 0.00 W/m2
00:32 7.3 °C 3.2 °C 1021.9 hPa Calm   1.6 km/h 75% 0 mm 0.00 W/m2
00:37 7.3 °C 2.9 °C 1021.9 hPa Calm   1.6 km/h 74% 0 mm 0.00 W/m2
00:42 7.2 °C 3.1 °C 1021.9 hPa East 3.2 km/h 3.2 km/h 75% 0 mm 0.00 W/m2
00:47 7.1 °C 2.9 °C 1022.2 hPa Calm   3.2 km/h 75% 0 mm 0.00 W/m2
00:52 7 °C 2.5 °C 1022.2 hPa Calm   4.8 km/h 73% 0 mm 0.00 W/m2
00:57 6.9 °C 3 °C 1022.2 hPa Calm   1.6 km/h 76% 0 mm 0.00 W/m2
01:02 6.9 °C 2.6 °C 1022.6 hPa Calm     74% 0 mm 0.00 W/m2
01:07 6.8 °C 2.5 °C 1022.6 hPa East 1.6 km/h 1.6 km/h 74% 0 mm 0.00 W/m2
01:12 6.7 °C 2.4 °C 1022.6 hPa Calm   1.6 km/h 74% 0 mm 0.00 W/m2
01:17 6.7 °C 2.6 °C 1022.6 hPa Calm   1.6 km/h 75% 0 mm 0.00 W/m2
01:22 6.6 °C 2.7 °C 1022.6 hPa East 1.6 km/h 3.2 km/h 76% 0 mm 0.00 W/m2
01:27 6.4 °C 2.3 °C 1022.6 hPa Calm     75% 0 mm 0.00 W/m2
01:32 6.3 °C 2.4 °C 1022.6 hPa Calm     76% 0 mm 0.00 W/m2
01:37 6.2 °C 2.3 °C 1022.6 hPa Calm     76% 0 mm 0.00 W/m2
01:42 6.2 °C 2.3 °C 1022.6 hPa Calm     76% 0 mm 0.00 W/m2
01:47 6.2 °C 2.1 °C 1022.9 hPa Calm     75% 0 mm 0.00 W/m2
01:52 6.1 °C 2.6 °C 1022.9 hPa Calm     78% 0 mm 0.00 W/m2
01:57 6.1 °C 2.4 °C 1022.9 hPa Calm   1.6 km/h 77% 0 mm 0.00 W/m2
02:02 6.1 °C 2.3 °C 1022.6 hPa Calm   1.6 km/h 77% 0 mm 0.00 W/m2
02:07 6.1 °C 2.3 °C 1022.6 hPa Calm     77% 0 mm 0.00 W/m2
02:12 6.1 °C 2.5 °C 1022.6 hPa Calm   1.6 km/h 78% 0 mm 0.00 W/m2
02:17 6 °C 2.3 °C 1022.6 hPa Calm   1.6 km/h 77% 0 mm 0.00 W/m2
02:22 6 °C 2.3 °C 1022.6 hPa Calm   6.4 km/h 77% 0 mm 0.00 W/m2
02:27 6 °C 2.3 °C 1022.6 hPa Calm   1.6 km/h 77% 0 mm 0.00 W/m2
02:32 5.9 °C 2.2 °C 1022.6 hPa Calm   3.2 km/h 77% 0 mm 0.00 W/m2
02:37 5.9 °C 2.2 °C 1022.6 hPa ESE 1.6 km/h 6.4 km/h 77% 0 mm 0.00 W/m2
02:42 5.9 °C 2.2 °C 1022.2 hPa ESE 1.6 km/h 3.2 km/h 77% 0 mm 0.00 W/m2
02:47 5.9 °C 2.4 °C 1022.2 hPa Calm   6.4 km/h 78% 0 mm 0.00 W/m2
02:52 5.9 °C 2.4 °C 1022.2 hPa Calm   8 km/h 78% 0 mm 0.00 W/m2
02:57 5.9 °C 2.3 °C 1022.2 hPa Calm   11.3 km/h 78% 0 mm 0.00 W/m2
03:02 5.9 °C 2.3 °C 1022.2 hPa Calm   8 km/h 78% 0 mm 0.00 W/m2
03:07 5.8 °C 2.3 °C 1021.9 hPa East 1.6 km/h 11.3 km/h 78% 0 mm 0.00 W/m2
03:12 5.8 °C 2.1 °C 1021.9 hPa ESE 6.4 km/h 17.7 km/h 77% 0 mm 0.00 W/m2
03:17 5.8 °C 1.9 °C 1021.9 hPa ESE 11.3 km/h 11.3 km/h 76% 0 mm 0.00 W/m2
03:22 5.8 °C 1.8 °C 1021.9 hPa East 6.4 km/h 9.7 km/h 75% 0 mm 0.00 W/m2
03:27 5.8 °C 1.6 °C 1021.9 hPa Calm   14.5 km/h 74% 0 mm 0.00 W/m2
03:33 5.9 °C 1.5 °C 1021.6 hPa ESE 19.3 km/h 20.9 km/h 73% 0 mm 0.00 W/m2
03:38 6 °C 1.6 °C 1021.6 hPa East 3.2 km/h 9.7 km/h 73% 0 mm 0.00 W/m2
03:43 6.1 °C 1.2 °C 1021.6 hPa ESE 12.9 km/h 19.3 km/h 71% 0 mm 0.00 W/m2
03:48 6.1 °C 1.1 °C 1021.6 hPa East 1.6 km/h 19.3 km/h 70% 0 mm 0.00 W/m2
03:53 6.2 °C 1.3 °C 1021.6 hPa ENE 6.4 km/h 19.3 km/h 71% 0 mm 0.00 W/m2
03:58 6.2 °C 1.5 °C 1021.6 hPa Calm   9.7 km/h 72% 0 mm 0.00 W/m2
04:03 6.2 °C 1.1 °C 1021.6 hPa East 8 km/h 12.9 km/h 70% 0 mm 0.00 W/m2
04:08 6.2 °C 0.9 °C 1021.6 hPa East 3.2 km/h 11.3 km/h 69% 0 mm 0.00 W/m2
04:13 6.2 °C 0.9 °C 1021.6 hPa SE 6.4 km/h 12.9 km/h 69% 0 mm 0.00 W/m2
04:18 6.2 °C 0.9 °C 1021.2 hPa Calm   11.3 km/h 69% 0 mm 0.00 W/m2
04:23 6.2 °C 0.7 °C 1021.2 hPa ESE 3.2 km/h 12.9 km/h 68% 0 mm 0.00 W/m2
04:28 6.2 °C 0.3 °C 1021.2 hPa Calm   14.5 km/h 66% 0 mm 0.00 W/m2
04:33 6.2 °C 0.3 °C 1021.2 hPa Calm   9.7 km/h 66% 0 mm 0.00 W/m2
04:38 6.3 °C 0.2 °C 1021.2 hPa ESE 3.2 km/h 11.3 km/h 65% 0 mm 0.00 W/m2
04:43 6.4 °C 0.5 °C 1021.2 hPa East 6.4 km/h 9.7 km/h 66% 0 mm 0.00 W/m2
04:48 6.4 °C 0.3 °C 1021.2 hPa East 8 km/h 11.3 km/h 65% 0 mm 0.00 W/m2
04:53 6.4 °C 0.6 °C 1021.6 hPa East 1.6 km/h 8 km/h 66% 0 mm 0.00 W/m2
04:58 6.5 °C 0.2 °C 1021.6 hPa Calm   8 km/h 64% 0 mm 0.00 W/m2
05:03 6.6 °C 0.4 °C 1021.6 hPa East 6.4 km/h 6.4 km/h 65% 0 mm 0.00 W/m2
05:08 6.6 °C 0.7 °C 1021.6 hPa East 1.6 km/h 12.9 km/h 66% 0 mm 0.00 W/m2
05:13 6.6 °C 0.7 °C 1021.6 hPa Calm   8 km/h 66% 0 mm 0.00 W/m2
05:18 6.6 °C 0.4 °C 1021.6 hPa Calm   6.4 km/h 65% 0 mm 0.00 W/m2
05:23 6.5 °C 0.6 °C 1021.9 hPa East 1.6 km/h 3.2 km/h 66% 0 mm 0.00 W/m2
05:28 6.5 °C 0.4 °C 1021.9 hPa Calm   3.2 km/h 65% 0 mm 0.00 W/m2
05:33 6.5 °C 0.2 °C 1021.6 hPa East 1.6 km/h 3.2 km/h 64% 0 mm 0.00 W/m2
05:38 6.4 °C 0.1 °C 1021.6 hPa Calm   3.2 km/h 64% 0 mm 0.00 W/m2
05:43 6.4 °C 0.3 °C 1021.9 hPa Calm   1.6 km/h 65% 0 mm 0.00 W/m2
05:48 6.4 °C 0.3 °C 1021.9 hPa Calm   3.2 km/h 65% 0 mm 0.00 W/m2
05:53 6.4 °C 0.1 °C 1021.9 hPa Calm     64% 0 mm 0.00 W/m2
05:58 6.4 °C -0.1 °C 1021.9 hPa Calm   1.6 km/h 63% 0 mm 0.00 W/m2
06:03 6.5 °C 0.4 °C 1021.9 hPa Calm   3.2 km/h 65% 0 mm 0.00 W/m2
06:08 6.5 °C 0.4 °C 1022.2 hPa Calm   6.4 km/h 65% 0 mm 0.00 W/m2
06:13 6.4 °C 0.6 °C 1022.2 hPa Calm   3.2 km/h 66% 0 mm 0.00 W/m2
06:18 6.4 °C 0.7 °C 1022.2 hPa Calm   3.2 km/h 67% 0 mm 0.00 W/m2
06:23 6.3 °C 0.4 °C 1022.2 hPa Calm   6.4 km/h 66% 0 mm 0.00 W/m2
06:28 6.2 °C 0.3 °C 1022.2 hPa East 3.2 km/h 8 km/h 66% 0 mm 0.00 W/m2
06:33 6.1 °C -0.2 °C 1022.2 hPa East 1.6 km/h 6.4 km/h 64% 0 mm 0.00 W/m2
06:38 6 °C -0.3 °C 1022.2 hPa Calm     64% 0 mm 0.00 W/m2
06:43 5.9 °C -0.1 °C 1022.6 hPa Calm     65% 0 mm 0.00 W/m2
06:48 5.9 °C 0.3 °C 1022.6 hPa Calm     67% 0 mm 0.00 W/m2
06:54 5.8 °C 0.2 °C 1022.6 hPa Calm     67% 0 mm 5.00 W/m2
06:58 5.8 °C 0 °C 1022.6 hPa Calm     66% 0 mm 7.00 W/m2
07:04 5.8 °C 0.1 °C 1022.6 hPa Calm   3.2 km/h 67% 0 mm 11.00 W/m2
07:09 5.8 °C 0.1 °C 1022.9 hPa East 3.2 km/h 3.2 km/h 67% 0 mm 14.00 W/m2
07:14 5.8 °C 0.3 °C 1022.9 hPa Calm   3.2 km/h 68% 0 mm 16.00 W/m2
07:19 5.7 °C 0.1 °C 1022.9 hPa Calm   1.6 km/h 67% 0 mm 21.00 W/m2
07:24 5.7 °C 0.1 °C 1022.9 hPa Calm     67% 0 mm 32.00 W/m2
07:29 5.7 °C -0.1 °C 1022.9 hPa East 6.4 km/h 8 km/h 66% 0 mm 46.00 W/m2
07:34 5.7 °C -0.1 °C 1022.9 hPa East 1.6 km/h 6.4 km/h 66% 0 mm 60.00 W/m2
07:39 5.8 °C 0.1 °C 1022.9 hPa East 1.6 km/h 8 km/h 67% 0 mm 76.00 W/m2
07:44 5.8 °C 0.3 °C 1022.9 hPa East 1.6 km/h 8 km/h 68% 0 mm 90.00 W/m2
07:49 5.8 °C 0.3 °C 1023.2 hPa East 3.2 km/h 14.5 km/h 68% 0 mm 107.00 W/m2
07:54 5.8 °C 0.3 °C 1023.2 hPa East 3.2 km/h 8 km/h 68% 0 mm 127.00 W/m2
07:59 5.8 °C 0.4 °C 1023.2 hPa East 1.6 km/h 8 km/h 68% 0 mm 146.00 W/m2
08:04 5.9 °C 0.4 °C 1023.2 hPa Calm   11.3 km/h 68% 0 mm 167.00 W/m2
08:09 5.9 °C 0.3 °C 1023.6 hPa Calm   9.7 km/h 67% 0 mm 186.00 W/m2
08:14 6.1 °C 0.4 °C 1023.2 hPa ESE 3.2 km/h 14.5 km/h 67% 0 mm 211.00 W/m2
08:19 6.2 °C 0.1 °C 1023.6 hPa ESE 6.4 km/h 12.9 km/h 65% 0 mm 232.00 W/m2
08:24 6.3 °C 0 °C 1023.6 hPa Calm   11.3 km/h 64% 0 mm 248.00 W/m2
08:29 6.5 °C 0.2 °C 1023.6 hPa East 8 km/h 9.7 km/h 64% 0 mm 267.00 W/m2
08:34 6.7 °C 0.8 °C 1023.6 hPa Calm   11.3 km/h 66% 0 mm 292.00 W/m2
08:39 6.9 °C 1.1 °C 1023.6 hPa Calm   8 km/h 66% 0 mm 313.00 W/m2
08:44 7.1 °C 0.8 °C 1023.6 hPa East 8 km/h 11.3 km/h 64% 0 mm 330.00 W/m2
08:49 7.3 °C 1.3 °C 1023.6 hPa Calm   6.4 km/h 66% 0 mm 348.00 W/m2
08:54 7.5 °C 1.3 °C 1023.6 hPa East 1.6 km/h 8 km/h 65% 0 mm 362.00 W/m2
08:59 7.7 °C 2 °C 1023.6 hPa East 1.6 km/h 8 km/h 67% 0 mm 380.00 W/m2
09:04 7.8 °C 1.2 °C 1023.2 hPa Calm     63% 0 mm 394.00 W/m2
09:09 8.1 °C 1.7 °C 1023.2 hPa Calm     64% 0 mm 408.00 W/m2
09:14 8.3 °C 1.9 °C 1023.2 hPa Calm   6.4 km/h 64% 0 mm 424.00 W/m2
09:19 8.4 °C 2.1 °C 1023.2 hPa Calm   3.2 km/h 64% 0 mm 439.00 W/m2
09:24 8.7 °C 2.9 °C 1023.2 hPa East 1.6 km/h 9.7 km/h 67% 0 mm 455.00 W/m2
09:29 8.8 °C 1.3 °C 1023.2 hPa East 1.6 km/h 9.7 km/h 59% 0 mm 469.00 W/m2
09:34 9.1 °C 1.2 °C 1023.2 hPa Calm   3.2 km/h 58% 0 mm 480.00 W/m2
09:39 9.3 °C 0.8 °C 1023.2 hPa East 3.2 km/h 6.4 km/h 55% 0 mm 492.00 W/m2
09:44 9.7 °C 0 °C 1022.9 hPa Calm   3.2 km/h 51% 0 mm 503.00 W/m2
09:49 9.9 °C 0 °C 1022.9 hPa Calm   3.2 km/h 50% 0 mm 515.00 W/m2
09:54 10.3 °C 0.3 °C 1022.9 hPa Calm     50% 0 mm 527.00 W/m2
09:59 10.6 °C 1.4 °C 1022.9 hPa Calm     53% 0 mm 538.00 W/m2
10:04 10.8 °C 2.7 °C 1022.9 hPa Calm     57% 0 mm 552.00 W/m2
10:09 11.1 °C 2.1 °C 1022.9 hPa Calm     54% 0 mm 564.00 W/m2
10:14 11.2 °C 1.7 °C 1022.9 hPa Calm     52% 0 mm 575.00 W/m2
10:19 11.3 °C 2.1 °C 1022.9 hPa Calm   1.6 km/h 53% 0 mm 584.00 W/m2
10:24 11.7 °C 2.2 °C 1022.9 hPa Calm   3.2 km/h 52% 0 mm 592.00 W/m2
10:29 12.1 °C 3.1 °C 1022.9 hPa Calm   1.6 km/h 54% 0 mm 601.00 W/m2
10:34 12.4 °C 4.2 °C 1022.6 hPa East 4.8 km/h 8 km/h 57% 0 mm 610.00 W/m2
10:39 12.8 °C 3.2 °C 1022.9 hPa North 3.2 km/h 6.4 km/h 52% 0 mm 617.00 W/m2
10:45 13.1 °C 2.9 °C 1022.9 hPa NNW 3.2 km/h 4.8 km/h 50% 0 mm 626.00 W/m2
10:50 13.4 °C 2.9 °C 1022.9 hPa NW 1.6 km/h 4.8 km/h 49% 0 mm 633.00 W/m2
10:55 13.6 °C 2.4 °C 1022.9 hPa WNW 4.8 km/h 8 km/h 47% 0 mm 640.00 W/m2
11:00 13.8 °C 3.6 °C 1022.6 hPa WNW 4.8 km/h 6.4 km/h 50% 0 mm 645.00 W/m2
11:05 13.9 °C 4 °C 1022.6 hPa WNW 6.4 km/h 6.4 km/h 51% 0 mm 652.00 W/m2
11:10 14 °C 2.3 °C 1022.6 hPa WNW 4.8 km/h 6.4 km/h 45% 0 mm 656.00 W/m2
11:15 14.1 °C 1 °C 1022.6 hPa NW 1.6 km/h 6.4 km/h 41% 0 mm 663.00 W/m2
11:20 14.1 °C 1.1 °C 1022.6 hPa NW 1.6 km/h 6.4 km/h 41% 0 mm 666.00 W/m2
11:25 14.2 °C 1.2 °C 1022.6 hPa NW 1.6 km/h 6.4 km/h 41% 0 mm 671.00 W/m2
11:30 14.2 °C 2.2 °C 1022.2 hPa NW 1.6 km/h 6.4 km/h 44% 0 mm 677.00 W/m2
11:35 14.3 °C 1.6 °C 1022.2 hPa NW 3.2 km/h 4.8 km/h 42% 0 mm 680.00 W/m2
11:40 14.3 °C 1.6 °C 1022.2 hPa NW 3.2 km/h 4.8 km/h 42% 0 mm 684.00 W/m2
11:45 14.4 °C 2.3 °C 1022.2 hPa NW 4.8 km/h 8 km/h 44% 0 mm 686.00 W/m2
11:50 14.4 °C 2.3 °C 1022.2 hPa NW 4.8 km/h 9.7 km/h 44% 0 mm 687.00 W/m2
11:55 14.5 °C 3.3 °C 1022.2 hPa NW 1.6 km/h 6.4 km/h 47% 0 mm 687.00 W/m2
12:00 14.5 °C 3.6 °C 1022.2 hPa WNW 3.2 km/h 8 km/h 48% 0 mm 689.00 W/m2
12:05 14.6 °C 4 °C 1022.2 hPa NW 1.6 km/h 8 km/h 49% 0 mm 689.00 W/m2
12:10 14.6 °C 4 °C 1021.9 hPa WNW 3.2 km/h 4.8 km/h 49% 0 mm 689.00 W/m2
12:15 14.7 °C 4.4 °C 1021.9 hPa WNW 1.6 km/h 6.4 km/h 50% 0 mm 691.00 W/m2
12:20 14.7 °C 4.1 °C 1021.9 hPa NW 3.2 km/h 8 km/h 49% 0 mm 691.00 W/m2
12:25 14.8 °C 4.2 °C 1021.9 hPa WNW 1.6 km/h 4.8 km/h 49% 0 mm 693.00 W/m2
12:30 14.8 °C 4.2 °C 1021.6 hPa NW 3.2 km/h 6.4 km/h 49% 0 mm 691.00 W/m2
12:35 14.9 °C 4.3 °C 1021.6 hPa NW 3.2 km/h 4.8 km/h 49% 0 mm 687.00 W/m2
12:40 14.9 °C 4.3 °C 1021.6 hPa Calm   4.8 km/h 49% 0 mm 684.00 W/m2
12:45 15 °C 4.9 °C 1021.6 hPa NW 1.6 km/h 4.8 km/h 51% 0 mm 684.00 W/m2
12:50 15.1 °C 4.7 °C 1021.2 hPa NW 1.6 km/h 6.4 km/h 50% 0 mm 680.00 W/m2
12:55 15.2 °C 4.8 °C 1021.2 hPa Calm   6.4 km/h 50% 0 mm 680.00 W/m2
13:00 15.2 °C 5.2 °C 1021.2 hPa Calm   8 km/h 51% 0 mm 687.00 W/m2
13:05 15.3 °C 4.9 °C 1021.2 hPa Calm   11.3 km/h 50% 0 mm 668.00 W/m2
13:10 15.3 °C 4.7 °C 1021.2 hPa WNW 1.6 km/h 6.4 km/h 49% 0 mm 679.00 W/m2
13:15 15.4 °C 5 °C 1021.2 hPa Calm   8 km/h 50% 0 mm 680.00 W/m2
13:20 15.4 °C 4.7 °C 1020.9 hPa Calm   4.8 km/h 49% 0 mm 643.00 W/m2
13:25 15.4 °C 4.8 °C 1020.9 hPa WNW 3.2 km/h 3.2 km/h 49% 0 mm 622.00 W/m2
13:30 15.5 °C 5.1 °C 1020.9 hPa WNW 1.6 km/h 4.8 km/h 50% 0 mm 633.00 W/m2
13:36 15.5 °C 4.6 °C 1020.9 hPa Calm   9.7 km/h 48% 0 mm 652.00 W/m2
13:41 15.5 °C 5.4 °C 1020.9 hPa Calm   4.8 km/h 51% 0 mm 608.00 W/m2
13:45 15.6 °C 4.6 °C 1020.9 hPa NW 1.6 km/h 1.6 km/h 48% 0 mm 613.00 W/m2
13:51 15.6 °C 5.2 °C 1020.9 hPa Calm   3.2 km/h 50% 0 mm 573.00 W/m2
13:56 15.6 °C 4.6 °C 1020.9 hPa NW 1.6 km/h 3.2 km/h 48% 0 mm 494.00 W/m2
14:01 15.6 °C 4.3 °C 1020.9 hPa Calm   11.3 km/h 47% 0 mm 466.00 W/m2
14:06 15.6 °C 4.7 °C 1020.9 hPa NNW 1.6 km/h 11.3 km/h 48% 0 mm 468.00 W/m2
14:11 15.7 °C 4.7 °C 1020.9 hPa NNW 1.6 km/h 3.2 km/h 48% 0 mm 529.00 W/m2
14:16 15.7 °C 4.7 °C 1020.9 hPa Calm   8 km/h 48% 0 mm 448.00 W/m2
14:21 15.7 °C 4.7 °C 1020.5 hPa Calm   1.6 km/h 48% 0 mm 584.00 W/m2
14:26 15.7 °C 5 °C 1020.5 hPa Calm   1.6 km/h 49% 0 mm 547.00 W/m2
14:31 15.7 °C 5 °C 1020.5 hPa Calm     49% 0 mm 534.00 W/m2
14:36 15.7 °C 4.4 °C 1020.5 hPa Calm     47% 0 mm 538.00 W/m2
14:41 15.7 °C 4.7 °C 1020.5 hPa Calm     48% 0 mm 527.00 W/m2
14:46 15.7 °C 4.2 °C 1020.5 hPa Calm     46% 0 mm 482.00 W/m2
14:51 15.7 °C 5.1 °C 1020.2 hPa Calm   8 km/h 49% 0 mm 503.00 W/m2
14:56 15.7 °C 4.2 °C 1020.2 hPa Calm   1.6 km/h 46% 0 mm 439.00 W/m2
15:01 15.7 °C 3.8 °C 1020.2 hPa Calm     45% 0 mm 399.00 W/m2
15:06 15.7 °C 4.7 °C 1019.9 hPa Calm     48% 0 mm 468.00 W/m2
15:11 15.7 °C 4.4 °C 1019.9 hPa Calm   1.6 km/h 47% 0 mm 441.00 W/m2
15:16 15.7 °C 5.3 °C 1019.9 hPa SSW 1.6 km/h 3.2 km/h 50% 0 mm 378.00 W/m2
15:21 15.7 °C 4.1 °C 1019.9 hPa Calm   3.2 km/h 46% 0 mm 399.00 W/m2
15:26 15.7 °C 3.4 °C 1019.9 hPa Calm   1.6 km/h 44% 0 mm 403.00 W/m2
15:31 15.6 °C 4.1 °C 1019.9 hPa South 1.6 km/h 1.6 km/h 46% 0 mm 380.00 W/m2
15:36 15.6 °C 4.7 °C 1020.2 hPa Calm     48% 0 mm 359.00 W/m2
15:41 15.6 °C 5.5 °C 1020.2 hPa Calm     51% 0 mm 346.00 W/m2
15:46 15.6 °C 4 °C 1020.2 hPa SW 8 km/h 9.7 km/h 46% 0 mm 338.00 W/m2
15:51 15.6 °C 4.6 °C 1020.5 hPa Calm     48% 0 mm 320.00 W/m2
15:56 15.6 °C 4.6 °C 1020.5 hPa Calm     48% 0 mm 301.00 W/m2
16:01 15.6 °C 5.4 °C 1020.5 hPa Calm   4.8 km/h 51% 0 mm 283.00 W/m2
16:06 15.6 °C 5.7 °C 1020.5 hPa WSW 9.7 km/h 9.7 km/h 52% 0 mm 264.00 W/m2
16:12 15.5 °C 6.2 °C 1020.5 hPa Calm   1.6 km/h 54% 0 mm 248.00 W/m2
16:17 15.4 °C 6.7 °C 1020.5 hPa WSW 1.6 km/h 9.7 km/h 56% 0 mm 229.00 W/m2
16:22 15.3 °C 6.6 °C 1020.5 hPa Calm   17.7 km/h 56% 0 mm 209.00 W/m2
16:27 15.2 °C 6.9 °C 1020.9 hPa Calm     58% 0 mm 188.00 W/m2
16:32 15.1 °C 7.1 °C 1020.9 hPa WSW 1.6 km/h 3.2 km/h 59% 0 mm 165.00 W/m2
16:37 14.9 °C 7 °C 1020.9 hPa WSW 1.6 km/h 1.6 km/h 59% 0 mm 149.00 W/m2
16:42 14.8 °C 7.4 °C 1020.9 hPa Calm     61% 0 mm 128.00 W/m2
16:47 14.7 °C 7 °C 1020.9 hPa West 1.6 km/h 3.2 km/h 60% 0 mm 109.00 W/m2
16:52 14.5 °C 7.1 °C 1020.9 hPa Calm     61% 0 mm 86.00 W/m2
16:57 14.4 °C 7.2 °C 1021.2 hPa Calm     62% 0 mm 69.00 W/m2
17:02 14.3 °C 7.6 °C 1021.2 hPa Calm     64% 0 mm 42.00 W/m2
17:07 14.1 °C 7.6 °C 1021.2 hPa Calm     65% 0 mm 30.00 W/m2
17:12 13.8 °C 7.3 °C 1021.2 hPa Calm     65% 0 mm 25.00 W/m2
17:17 13.6 °C 7.4 °C 1021.2 hPa Calm     66% 0 mm 18.00 W/m2
17:27 13.2 °C 7.2 °C 1021.2 hPa Calm     67% 0 mm 12.00 W/m2
17:32 13.1 °C 7.3 °C 1021.2 hPa Calm     68% 0 mm 9.00 W/m2
17:37 12.9 °C 7.2 °C 1021.2 hPa Calm     68% 0 mm 5.00 W/m2
17:42 12.7 °C 7.3 °C 1021.2 hPa Calm     70% 0 mm 0.00 W/m2
17:47 12.3 °C 7.2 °C 1021.6 hPa Calm     71% 0 mm 0.00 W/m2
17:52 12.1 °C 7.2 °C 1021.6 hPa Calm     72% 0 mm 0.00 W/m2
17:57 11.9 °C 7.2 °C 1021.6 hPa Calm     73% 0 mm 0.00 W/m2
18:02 11.8 °C 7.3 °C 1021.6 hPa Calm     74% 0 mm 0.00 W/m2
18:07 11.6 °C 7.1 °C 1021.9 hPa Calm     74% 0 mm 0.00 W/m2
18:12 11.4 °C 7.1 °C 1021.9 hPa Calm     75% 0 mm 0.00 W/m2
18:17 11.2 °C 6.9 °C 1021.9 hPa Calm     75% 0 mm 0.00 W/m2
18:22 10.9 °C 6.9 °C 1021.9 hPa Calm     76% 0 mm 0.00 W/m2
18:27 10.8 °C 6.9 °C 1022.2 hPa Calm     77% 0 mm 0.00 W/m2
18:33 10.6 °C 6.9 °C 1022.2 hPa Calm     78% 0 mm 0.00 W/m2
18:38 10.3 °C 6.8 °C 1022.2 hPa Calm     79% 0 mm 0.00 W/m2
18:42 10.2 °C 6.7 °C 1022.2 hPa Calm     79% 0 mm 0.00 W/m2
18:48 10 °C 6.6 °C 1022.2 hPa Calm     79% 0 mm 0.00 W/m2
18:53 9.9 °C 6.6 °C 1021.9 hPa Calm     80% 0 mm 0.00 W/m2
18:58 9.8 °C 6.6 °C 1021.9 hPa Calm     80% 0 mm 0.00 W/m2
19:03 9.7 °C 6.6 °C 1021.9 hPa Calm     81% 0 mm 0.00 W/m2
19:08 9.7 °C 6.6 °C 1021.9 hPa Calm     81% 0 mm 0.00 W/m2
19:13 9.6 °C 6.4 °C 1021.9 hPa Calm     81% 0 mm 0.00 W/m2
19:18 9.5 °C 6.4 °C 1021.9 hPa SE 1.6 km/h 3.2 km/h 81% 0 mm 0.00 W/m2
19:23 9.4 °C 6.3 °C 1021.9 hPa ESE 1.6 km/h 3.2 km/h 81% 0 mm 0.00 W/m2
19:28 9.3 °C 6.2 °C 1021.9 hPa ESE 3.2 km/h 8 km/h 81% 0 mm 0.00 W/m2
19:33 9.3 °C 6.2 °C 1021.9 hPa Calm   3.2 km/h 81% 0 mm 0.00 W/m2
19:38 9.3 °C 6.4 °C 1021.9 hPa ESE 1.6 km/h 8 km/h 82% 0 mm 0.00 W/m2
19:43 9.3 °C 6.4 °C 1021.9 hPa Calm   9.7 km/h 82% 0 mm 0.00 W/m2
19:48 9.2 °C 6.3 °C 1021.9 hPa ESE 6.4 km/h 9.7 km/h 82% 0 mm 0.00 W/m2
19:53 9.2 °C 6.3 °C 1021.9 hPa East 3.2 km/h 12.9 km/h 82% 0 mm 0.00 W/m2
19:58 9.2 °C 6.3 °C 1021.6 hPa East 1.6 km/h 14.5 km/h 82% 0 mm 0.00 W/m2
20:03 9.2 °C 6.3 °C 1021.6 hPa East 12.9 km/h 12.9 km/h 82% 0 mm 0.00 W/m2
20:08 9.2 °C 6.3 °C 1021.6 hPa East 3.2 km/h 14.5 km/h 82% 0 mm 0.00 W/m2
20:13 9.3 °C 6.4 °C 1021.9 hPa Calm   11.3 km/h 82% 0 mm 0.00 W/m2
20:18 9.3 °C 6.4 °C 1021.9 hPa East 3.2 km/h 11.3 km/h 82% 0 mm 0.00 W/m2
20:23 9.4 °C 6.3 °C 1021.9 hPa Calm   11.3 km/h 81% 0 mm 0.00 W/m2
20:28 9.4 °C 6.3 °C 1022.2 hPa ESE 8 km/h 9.7 km/h 81% 0 mm 0.00 W/m2
20:33 9.5 °C 6.4 °C 1022.2 hPa Calm   9.7 km/h 81% 0 mm 0.00 W/m2
20:43 9.6 °C 6.3 °C 1022.2 hPa East 3.2 km/h 8 km/h 80% 0 mm 0.00 W/m2
20:48 9.6 °C 6.3 °C 1022.2 hPa East 6.4 km/h 14.5 km/h 80% 0 mm 0.00 W/m2
20:53 9.6 °C 6.4 °C 1022.2 hPa ESE 3.2 km/h 9.7 km/h 81% 0 mm 0.00 W/m2
20:58 9.5 °C 6.2 °C 1022.2 hPa East 6.4 km/h 8 km/h 80% 0 mm 0.00 W/m2
21:03 9.5 °C 6.2 °C 1022.2 hPa ESE 11.3 km/h 12.9 km/h 80% 0 mm 0.00 W/m2
21:08 9.5 °C 6.2 °C 1022.2 hPa East 3.2 km/h 12.9 km/h 80% 0 mm 0.00 W/m2
21:13 9.5 °C 6.2 °C 1022.2 hPa Calm   17.7 km/h 80% 0 mm 0.00 W/m2
21:18 9.5 °C 6.1 °C 1022.2 hPa East 12.9 km/h 12.9 km/h 79% 0 mm 0.00 W/m2
21:23 9.5 °C 6.1 °C 1022.2 hPa ESE 3.2 km/h 14.5 km/h 79% 0 mm 0.00 W/m2
21:28 9.5 °C 6.1 °C 1022.2 hPa ESE 3.2 km/h 14.5 km/h 79% 0 mm 0.00 W/m2
21:33 9.5 °C 6.1 °C 1022.2 hPa ESE 1.6 km/h 9.7 km/h 79% 0 mm 0.00 W/m2
21:38 9.5 °C 5.8 °C 1022.2 hPa ESE 8 km/h 25.7 km/h 78% 0 mm 0.00 W/m2
21:43 9.5 °C 6.1 °C 1022.2 hPa Calm   12.9 km/h 79% 0 mm 0.00 W/m2
21:49 9.5 °C 5.8 °C 1022.6 hPa ESE 8 km/h 12.9 km/h 78% 0 mm 0.00 W/m2
21:54 9.4 °C 5.6 °C 1022.6 hPa ESE 8 km/h 9.7 km/h 77% 0 mm 0.00 W/m2
21:59 9.5 °C 5.7 °C 1022.6 hPa Calm   11.3 km/h 77% 0 mm 0.00 W/m2
22:04 9.5 °C 5.7 °C 1022.6 hPa Calm   19.3 km/h 77% 0 mm 0.00 W/m2
22:09 9.5 °C 5.7 °C 1022.9 hPa ESE 6.4 km/h 11.3 km/h 77% 0 mm 0.00 W/m2
22:14 9.4 °C 5.6 °C 1022.6 hPa Calm   22.5 km/h 77% 0 mm 0.00 W/m2
22:19 9.4 °C 5.6 °C 1022.6 hPa Calm   14.5 km/h 77% 0 mm 0.00 W/m2
22:24 9.3 °C 5.3 °C 1022.6 hPa Calm   11.3 km/h 76% 0 mm 0.00 W/m2
22:29 9.3 °C 5.3 °C 1022.6 hPa Calm   9.7 km/h 76% 0 mm 0.00 W/m2
22:34 9.3 °C 5.3 °C 1022.9 hPa ESE 6.4 km/h 11.3 km/h 76% 0 mm 0.00 W/m2
22:39 9.2 °C 5.2 °C 1022.6 hPa ESE 1.6 km/h 17.7 km/h 76% 0 mm 0.00 W/m2
22:44 9.2 °C 5.2 °C 1022.6 hPa ESE 1.6 km/h 14.5 km/h 76% 0 mm 0.00 W/m2
22:49 9.2 °C 5 °C 1022.6 hPa East 1.6 km/h 17.7 km/h 75% 0 mm 0.00 W/m2
22:54 9.2 °C 5 °C 1022.6 hPa East 8 km/h 12.9 km/h 75% 0 mm 0.00 W/m2
22:59 9.2 °C 4.8 °C 1022.6 hPa East 11.3 km/h 12.9 km/h 74% 0 mm 0.00 W/m2
23:04 9.2 °C 4.8 °C 1022.6 hPa Calm   20.9 km/h 74% 0 mm 0.00 W/m2
23:09 9.2 °C 4.8 °C 1022.6 hPa ESE 1.6 km/h 20.9 km/h 74% 0 mm 0.00 W/m2
23:14 9.2 °C 4.8 °C 1022.2 hPa ESE 12.9 km/h 19.3 km/h 74% 0 mm 0.00 W/m2
23:19 9.2 °C 4.6 °C 1022.6 hPa Calm   24.1 km/h 73% 0 mm 0.00 W/m2
23:24 9.3 °C 4.5 °C 1022.6 hPa East 1.6 km/h 6.4 km/h 72% 0 mm 0.00 W/m2
23:29 9.3 °C 4.5 °C 1022.6 hPa East 6.4 km/h 22.5 km/h 72% 0 mm 0.00 W/m2
23:34 9.3 °C 4.7 °C 1022.6 hPa Calm   24.1 km/h 73% 0 mm 0.00 W/m2
23:39 9.3 °C 4.5 °C 1022.6 hPa East 1.6 km/h 12.9 km/h 72% 0 mm 0.00 W/m2
23:44 9.2 °C 4.4 °C 1022.2 hPa East 1.6 km/h 19.3 km/h 72% 0 mm 0.00 W/m2
23:49 9.3 °C 4.5 °C 1022.2 hPa East 20.9 km/h 24.1 km/h 72% 0 mm 0.00 W/m2
23:54 9.2 °C 4.2 °C 1022.2 hPa SE 8 km/h 14.5 km/h 71% 0 mm 0.00 W/m2
23:59 9.2 °C 4.1 °C 1022.2 hPa ESE 1.6 km/h 19.3 km/h 70% 0 mm 0.00 W/m2
Foresthill Weather
 WU-history PHP script courtesy of   Juneau County Weather.
powered by Cumulus v1.9.3 (1059)
Ambient Weather VWS v14.00
Top Contact Website Map Copyright © 2007 - 2018 Foresthillweather.com Never base important decisions on this or any weather information obtained from the Internet